LGSA/CHQ METAR and TAF weather

Enter ICAO airport designator
Station Type Date Time Source
LGSA METAR 2022/06/27 18:50 UTC NOAA

LGSA 271850Z 29005KT 9999 FEW080 25/19 Q1014


Station Type Date Time Source
LGSA Decoded METAR 2022/06/27 18:50 UTC NOAA

Souda Airport , Greece (LGSA) 35-29N 024-07E 151M
Jun 27, 2022 - 02:50 PM EDT / 2022.06.27 1850 UTC
Wind: from the WNW (290 degrees) at 6 MPH (5 KT):0
Visibility: greater than 7 mile(s):0
Sky conditions: mostly clear
Temperature: 77 F (25 C)
Dew Point: 66 F (19 C)
Relative Humidity: 69%
Pressure (altimeter): 29.94 in. Hg (1014 hPa)
ob: LGSA 271850Z 29005KT 9999 FEW080 25/19 Q1014
cycle: 19

Station Type Date Time Source
LGSA TAF 2022/06/27 18:16 UTC NOAA

TAF LGSA 271700Z 2718/2818 28010KT 9999 FEW020
TEMPO 2802/2806 VRB05KT

Example: see airport list